createdAt,value
2019-01-03T00:00:37.345Z,4.73
2019-01-03T00:03:38.301Z,6.53
2019-01-03T00:06:41.740Z,6.57
2019-01-03T00:09:39.599Z,6.13
2019-01-03T00:12:45.611Z,5.37
2019-01-03T00:15:56.898Z,9.87
2019-01-03T00:19:08.039Z,9.60
2019-01-03T00:22:15.615Z,8.93
2019-01-03T00:25:19.191Z,10.97
2019-01-03T00:28:36.682Z,8.00
2019-01-03T00:31:47.727Z,8.17
2019-01-03T00:34:51.990Z,7.80
2019-01-03T00:38:01.241Z,5.50
2019-01-03T00:41:15.331Z,6.63
2019-01-03T00:44:16.926Z,6.10
2019-01-03T00:47:22.179Z,6.80
2019-01-03T00:50:27.552Z,4.40
2019-01-03T00:53:21.922Z,4.77
2019-01-03T00:56:25.194Z,5.30
2019-01-03T00:59:28.971Z,4.67
2019-01-03T01:02:33.277Z,7.90
2019-01-03T01:05:50.420Z,4.70
2019-01-03T01:08:54.539Z,3.13
2019-01-03T01:12:06.791Z,3.37
2019-01-03T01:15:10.104Z,4.57
2019-01-03T01:18:04.845Z,4.37
2019-01-03T01:21:08.462Z,3.33
2019-01-03T01:24:09.537Z,6.17
2019-01-03T01:27:12.832Z,4.23
2019-01-03T01:30:19.713Z,5.27
2019-01-03T01:33:23.447Z,3.57
2019-01-03T01:36:27.173Z,4.63
2019-01-03T01:39:31.114Z,5.13
2019-01-03T01:42:34.555Z,6.33
2019-01-03T01:45:41.342Z,7.90
2019-01-03T01:48:56.898Z,6.43
2019-01-03T01:51:56.562Z,4.40
2019-01-03T01:55:00.211Z,4.10
2019-01-03T01:58:04.071Z,16.23
2019-01-03T02:01:26.850Z,4.37
2019-01-03T02:04:40.562Z,5.53
2019-01-03T02:07:44.234Z,6.13
2019-01-03T02:10:48.305Z,5.43
2019-01-03T02:14:08.589Z,5.47
2019-01-03T02:17:07.071Z,5.40
2019-01-03T02:20:10.829Z,5.03
2019-01-03T02:23:16.378Z,7.00
2019-01-03T02:26:20.198Z,6.83
2019-01-03T02:29:34.109Z,5.23
2019-01-03T02:32:37.563Z,6.60
2019-01-03T02:35:49.596Z,5.90
2019-01-03T02:38:55.215Z,6.50
2019-01-03T02:41:58.924Z,3.33
2019-01-03T02:45:04.833Z,5.83
2019-01-03T02:48:12.146Z,5.13
2019-01-03T02:51:16.200Z,5.30
2019-01-03T02:54:19.971Z,5.57
2019-01-03T02:57:37.444Z,3.40
2019-01-03T03:00:40.752Z,4.23
2019-01-03T03:03:50.438Z,4.27
2019-01-03T03:06:53.827Z,7.33
2019-01-03T03:09:57.631Z,4.77
2019-01-03T03:13:01.055Z,3.57
2019-01-03T03:16:04.618Z,5.57
2019-01-03T03:19:10.017Z,2.93
2019-01-03T03:22:15.278Z,6.13
2019-01-03T03:25:25.814Z,3.97
2019-01-03T03:28:29.982Z,3.77
2019-01-03T03:31:29.783Z,3.43
2019-01-03T03:34:32.848Z,4.57
2019-01-03T03:37:44.097Z,4.43
2019-01-03T03:40:49.094Z,5.43
2019-01-03T03:44:00.729Z,4.17
2019-01-03T03:47:04.468Z,3.03
2019-01-03T03:50:18.617Z,5.10
2019-01-03T03:53:29.460Z,4.90
2019-01-03T03:56:33.203Z,2.43
2019-01-03T03:59:37.047Z,7.37
2019-01-03T04:02:40.987Z,2.87
2019-01-03T04:05:46.710Z,6.67
2019-01-03T04:08:50.344Z,4.67
2019-01-03T04:11:48.932Z,4.17
2019-01-03T04:15:08.875Z,6.03
2019-01-03T04:18:19.520Z,3.83
2019-01-03T04:21:16.060Z,4.33
2019-01-03T04:24:39.799Z,8.53
2019-01-03T04:27:47.607Z,4.50
2019-01-03T04:30:57.209Z,5.63
2019-01-03T04:34:05.044Z,2.83
2019-01-03T04:37:07.803Z,3.67
2019-01-03T04:40:09.628Z,4.77
2019-01-03T04:43:13.363Z,5.40
2019-01-03T04:46:16.348Z,4.87
2019-01-03T04:49:20.031Z,6.00
2019-01-03T04:52:23.697Z,2.93
2019-01-03T04:55:27.061Z,5.10
2019-01-03T04:58:31.995Z,3.53
2019-01-03T05:02:14.573Z,6.77
2019-01-03T05:05:31.460Z,3.90
2019-01-03T05:08:33.669Z,4.97
2019-01-03T05:11:37.207Z,4.23
2019-01-03T05:14:43.951Z,7.00
2019-01-03T05:17:47.607Z,7.57
2019-01-03T05:20:52.833Z,4.20
2019-01-03T05:23:57.299Z,4.57
2019-01-03T05:26:59.703Z,3.13
2019-01-03T05:30:07.240Z,3.67
2019-01-03T05:33:15.135Z,5.73
2019-01-03T05:36:23.002Z,4.97
2019-01-03T05:39:26.866Z,7.67
2019-01-03T05:42:37.072Z,6.43
2019-01-03T05:45:37.574Z,3.00
2019-01-03T05:48:46.147Z,3.57
2019-01-03T05:52:05.958Z,6.40
2019-01-03T05:55:11.867Z,7.30
2019-01-03T05:58:26.118Z,6.47
2019-01-03T06:01:35.990Z,5.20
2019-01-03T06:04:35.811Z,6.23
2019-01-03T06:07:53.656Z,5.17
2019-01-03T06:11:10.858Z,5.87
2019-01-03T06:14:14.051Z,5.00
2019-01-03T06:17:24.373Z,5.67
2019-01-03T06:20:32.057Z,7.40
2019-01-03T06:23:35.315Z,6.47
2019-01-03T06:26:38.607Z,7.57
2019-01-03T06:29:43.896Z,5.93
2019-01-03T06:32:49.342Z,4.37
2019-01-03T06:36:00.635Z,4.50
2019-01-03T06:39:09.060Z,8.83
2019-01-03T06:42:21.811Z,12.67
2019-01-03T06:45:31.056Z,11.90
2019-01-03T06:48:42.047Z,9.83
2019-01-03T06:51:44.101Z,9.73
2019-01-03T06:54:54.771Z,8.87
2019-01-03T06:58:13.861Z,6.47
2019-01-03T07:01:12.247Z,6.57
2019-01-03T07:04:25.858Z,9.17
2019-01-03T07:07:36.061Z,8.40
2019-01-03T07:10:39.517Z,9.50
2019-01-03T07:13:53.274Z,7.13
2019-01-03T07:17:01.343Z,7.57
2019-01-03T07:20:04.595Z,8.90
2019-01-03T07:23:16.218Z,9.73
2019-01-03T07:26:27.679Z,8.87
2019-01-03T07:29:38.403Z,8.33
2019-01-03T07:32:40.173Z,9.23
2019-01-03T07:35:50.056Z,8.47
2019-01-03T07:38:55.116Z,9.67
2019-01-03T07:41:59.174Z,10.73
2019-01-03T07:45:02.756Z,8.43
2019-01-03T07:48:19.545Z,10.17
2019-01-03T07:51:24.287Z,10.57
2019-01-03T07:54:47.491Z,9.00
2019-01-03T07:57:58.406Z,9.17
2019-01-03T08:01:02.351Z,7.37
2019-01-03T08:04:15.806Z,8.50
2019-01-03T08:07:19.658Z,11.13
2019-01-03T08:10:23.365Z,8.20
2019-01-03T08:13:38.751Z,8.10
2019-01-03T08:16:43.742Z,11.17
2019-01-03T08:19:51.405Z,10.40
2019-01-03T08:23:01.706Z,10.27
2019-01-03T08:26:18.771Z,8.97
2019-01-03T08:29:26.938Z,13.43
2019-01-03T08:32:36.540Z,10.77
2019-01-03T08:35:59.764Z,7.70
2019-01-03T08:39:16.834Z,7.70
2019-01-03T08:42:22.744Z,8.10
2019-01-03T08:45:33.846Z,7.90
2019-01-03T08:49:00.365Z,10.30
2019-01-03T08:52:00.960Z,10.30
2019-01-03T08:55:05.100Z,8.43
2019-01-03T08:58:25.427Z,9.60
2019-01-03T09:01:32.115Z,8.87
2019-01-03T09:04:38.505Z,8.23
2019-01-03T09:07:45.506Z,11.97
2019-01-03T09:10:50.251Z,10.07
2019-01-03T09:13:53.828Z,8.87
2019-01-03T09:16:57.841Z,11.67
2019-01-03T09:20:09.463Z,7.97
2019-01-03T09:23:13.726Z,10.73
2019-01-03T09:26:18.370Z,9.07
2019-01-03T09:29:26.014Z,10.37
2019-01-03T09:32:31.262Z,10.73
2019-01-03T09:35:42.611Z,11.63
2019-01-03T09:38:50.601Z,12.20
2019-01-03T09:41:59.172Z,9.47
2019-01-03T09:44:47.494Z,10.63
2019-01-03T09:47:32.626Z,8.10
2019-01-03T09:50:18.593Z,14.10
2019-01-03T09:53:06.043Z,10.53
2019-01-03T09:55:51.414Z,6.83
2019-01-03T09:58:37.407Z,10.97
2019-01-03T10:01:22.864Z,18.13
2019-01-03T10:04:08.999Z,9.13
2019-01-03T10:06:54.765Z,8.60
2019-01-03T10:09:40.242Z,11.17
2019-01-03T10:12:26.019Z,10.90
2019-01-03T10:15:11.978Z,8.53
2019-01-03T10:17:57.618Z,9.67
2019-01-03T10:20:43.109Z,10.67
2019-01-03T10:23:28.788Z,8.77
2019-01-03T10:26:14.455Z,9.93
2019-01-03T10:29:00.150Z,13.83
2019-01-03T10:31:45.470Z,8.57
2019-01-03T10:34:30.802Z,9.23
2019-01-03T10:37:16.282Z,12.82
2019-01-03T10:40:02.374Z,9.43
2019-01-03T10:42:47.638Z,9.58
2019-01-03T10:45:32.825Z,8.78
2019-01-03T10:48:18.506Z,7.27
2019-01-03T10:51:04.215Z,8.00
2019-01-03T10:53:50.046Z,11.45
2019-01-03T10:56:35.481Z,7.67
2019-01-03T10:59:21.196Z,6.30
2019-01-03T11:02:06.574Z,10.80
2019-01-03T11:04:51.695Z,7.13
2019-01-03T11:07:36.915Z,12.20
2019-01-03T11:10:22.230Z,9.30
2019-01-03T11:13:08.178Z,7.25
2019-01-03T11:15:53.942Z,11.65
2019-01-03T11:18:39.558Z,9.80
2019-01-03T11:21:25.069Z,9.30
2019-01-03T11:24:10.933Z,8.08
2019-01-03T11:26:56.653Z,10.23
2019-01-03T11:29:42.153Z,6.12
2019-01-03T11:32:28.218Z,10.48
2019-01-03T11:35:14.346Z,6.80
2019-01-03T11:38:00.061Z,6.50
2019-01-03T11:40:45.782Z,6.62
2019-01-03T11:43:31.478Z,9.03
2019-01-03T11:46:17.370Z,10.95
2019-01-03T11:49:03.161Z,12.28
2019-01-03T11:51:48.715Z,9.65
2019-01-03T11:54:34.107Z,8.80
2019-01-03T11:57:19.449Z,8.33
2019-01-03T12:00:07.024Z,8.05
2019-01-03T12:02:52.952Z,6.58
2019-01-03T12:05:38.473Z,5.05
2019-01-03T12:08:23.811Z,7.60
2019-01-03T12:11:09.040Z,4.53
2019-01-03T12:13:54.557Z,6.33
2019-01-03T12:16:40.019Z,6.50
2019-01-03T12:19:25.569Z,7.33
2019-01-03T12:22:10.977Z,5.42
2019-01-03T12:24:56.932Z,7.65
2019-01-03T12:27:42.273Z,8.03
2019-01-03T12:30:27.608Z,5.40
2019-01-03T12:33:13.162Z,5.35
2019-01-03T12:35:58.639Z,8.75
2019-01-03T12:38:45.065Z,3.30
2019-01-03T12:41:30.485Z,5.15
2019-01-03T12:44:15.989Z,6.25
2019-01-03T12:47:01.225Z,7.10
2019-01-03T12:49:46.458Z,11.57
2019-01-03T12:52:31.938Z,9.13
2019-01-03T12:55:17.352Z,6.55
2019-01-03T12:58:03.507Z,5.33
2019-01-03T13:00:49.007Z,8.35
2019-01-03T13:03:34.528Z,5.40
2019-01-03T13:06:21.149Z,6.40
2019-01-03T13:09:14.595Z,10.80
2019-01-03T13:11:59.950Z,5.85
2019-01-03T13:14:45.628Z,9.00
2019-01-03T13:17:31.497Z,5.78
2019-01-03T13:20:16.948Z,8.70
2019-01-03T13:23:02.561Z,5.85
2019-01-03T13:25:48.328Z,6.42
2019-01-03T13:28:34.247Z,5.72
2019-01-03T13:31:19.912Z,8.90
2019-01-03T13:34:05.064Z,8.18
2019-01-03T13:36:50.965Z,4.87
2019-01-03T13:39:36.386Z,7.62
2019-01-03T13:42:22.452Z,6.43
2019-01-03T13:45:09.493Z,4.67
2019-01-03T13:47:55.073Z,5.55
2019-01-03T13:50:40.656Z,4.37
2019-01-03T13:53:26.408Z,8.58
2019-01-03T13:56:12.023Z,6.33
2019-01-03T13:58:57.651Z,8.40
2019-01-03T14:01:43.578Z,8.85
2019-01-03T14:04:29.039Z,5.12
2019-01-03T14:07:15.041Z,8.40
2019-01-03T14:10:00.845Z,5.50
2019-01-03T14:12:46.810Z,6.72
2019-01-03T14:15:32.701Z,6.08
2019-01-03T14:18:18.187Z,6.72
2019-01-03T14:21:03.969Z,5.78
2019-01-03T14:23:49.411Z,6.95
2019-01-03T14:26:35.031Z,9.00
2019-01-03T14:29:20.402Z,5.33
2019-01-03T14:32:06.305Z,4.62
2019-01-03T14:34:52.015Z,5.40
2019-01-03T14:37:37.485Z,8.15
2019-01-03T14:40:23.248Z,7.50
2019-01-03T14:43:08.933Z,7.33
2019-01-03T14:45:54.621Z,10.45
2019-01-03T14:48:39.633Z,7.47
2019-01-03T14:51:25.884Z,8.40
2019-01-03T14:54:11.641Z,8.85
2019-01-03T14:56:56.899Z,9.10
2019-01-03T14:59:42.790Z,7.03
2019-01-03T15:02:28.107Z,8.07
2019-01-03T15:05:13.996Z,8.45
2019-01-03T15:07:59.698Z,7.07
2019-01-03T15:10:45.354Z,11.50
2019-01-03T15:13:31.426Z,7.10
2019-01-03T15:16:17.374Z,7.33
2019-01-03T15:19:03.091Z,9.88
2019-01-03T15:21:49.342Z,8.23
2019-01-03T15:24:34.903Z,8.57
2019-01-03T15:27:20.548Z,8.87
2019-01-03T15:30:09.010Z,7.33
2019-01-03T15:32:54.539Z,10.13
2019-01-03T15:35:40.366Z,8.65
2019-01-03T15:38:25.998Z,6.87
2019-01-03T15:41:11.491Z,10.43
2019-01-03T15:43:57.223Z,8.30
2019-01-03T15:46:42.899Z,9.30
2019-01-03T15:49:28.575Z,9.67
2019-01-03T15:52:14.395Z,7.87
2019-01-03T15:54:59.843Z,7.12
2019-01-03T15:57:45.117Z,13.17
2019-01-03T16:00:30.718Z,9.33
2019-01-03T16:03:16.507Z,8.93
2019-01-03T16:06:02.399Z,7.30
2019-01-03T16:08:47.554Z,11.20
2019-01-03T16:11:32.790Z,10.28
2019-01-03T16:14:18.766Z,13.20
2019-01-03T16:17:04.195Z,9.15
2019-01-03T16:19:31.099Z,10.00
2019-01-03T16:21:58.304Z,8.98
2019-01-03T16:24:25.412Z,13.50
2019-01-03T16:26:52.743Z,10.70
2019-01-03T16:29:20.155Z,8.63
2019-01-03T16:31:47.089Z,10.67
2019-01-03T16:34:14.168Z,8.17
2019-01-03T16:36:41.621Z,11.30
2019-01-03T16:39:08.643Z,8.67
2019-01-03T16:41:35.985Z,7.58
2019-01-03T16:44:03.306Z,8.28
2019-01-03T16:46:30.669Z,6.90
2019-01-03T16:49:16.346Z,8.83
2019-01-03T16:52:02.122Z,9.17
2019-01-03T16:54:47.627Z,8.07
2019-01-03T16:57:33.604Z,8.75
2019-01-03T17:00:19.487Z,8.17
2019-01-03T17:02:46.541Z,4.47
2019-01-03T17:05:15.093Z,7.50
2019-01-03T17:07:42.054Z,7.03
2019-01-03T17:10:12.042Z,4.63
2019-01-03T17:12:39.225Z,6.97
2019-01-03T17:15:06.574Z,5.10
2019-01-03T17:17:33.741Z,6.53
2019-01-03T17:20:01.083Z,9.30
2019-01-03T17:22:28.080Z,7.20
2019-01-03T17:24:55.202Z,5.63
2019-01-03T17:27:22.439Z,7.77
2019-01-03T17:29:49.652Z,8.07
2019-01-03T17:32:16.654Z,5.97
2019-01-03T17:34:44.291Z,6.97
2019-01-03T17:37:11.478Z,6.17
2019-01-03T17:39:38.423Z,5.13
2019-01-03T17:42:05.574Z,7.90
2019-01-03T17:44:32.777Z,4.17
2019-01-03T17:47:00.000Z,8.10
2019-01-03T17:49:27.291Z,6.80
2019-01-03T17:51:54.674Z,8.30
2019-01-03T17:54:21.692Z,6.23
2019-01-03T17:56:48.594Z,7.40
2019-01-03T17:59:15.486Z,7.30
2019-01-03T18:01:42.415Z,6.10
2019-01-03T18:04:09.542Z,9.07
2019-01-03T18:06:36.597Z,6.23
2019-01-03T18:09:04.350Z,7.80
2019-01-03T18:11:31.587Z,8.30
2019-01-03T18:13:58.483Z,4.60
2019-01-03T18:16:26.067Z,8.17
2019-01-03T18:18:53.080Z,6.13
2019-01-03T18:21:20.139Z,7.20
2019-01-03T18:23:48.434Z,6.57
2019-01-03T18:26:15.554Z,8.80
2019-01-03T18:28:42.471Z,7.23
2019-01-03T18:31:09.873Z,6.63
2019-01-03T18:33:36.874Z,8.27
2019-01-03T18:36:04.127Z,9.00
2019-01-03T18:38:37.868Z,8.70
2019-01-03T18:41:04.816Z,9.63
2019-01-03T18:43:31.848Z,7.00
2019-01-03T18:45:58.799Z,11.37
2019-01-03T18:48:26.129Z,11.00
2019-01-03T18:50:53.007Z,10.90
2019-01-03T18:53:19.961Z,7.03
2019-01-03T18:55:47.219Z,5.93
2019-01-03T18:58:14.413Z,6.93
2019-01-03T19:00:41.483Z,6.07
2019-01-03T19:03:08.811Z,6.63
2019-01-03T19:05:35.911Z,5.73
2019-01-03T19:08:03.163Z,5.97
2019-01-03T19:10:30.315Z,9.07
2019-01-03T19:12:57.627Z,12.67
2019-01-03T19:15:24.918Z,8.67
2019-01-03T19:17:52.168Z,10.40
2019-01-03T19:20:19.361Z,7.53
2019-01-03T19:22:46.923Z,8.27
2019-01-03T19:25:15.871Z,5.37
2019-01-03T19:27:43.294Z,7.87
2019-01-03T19:30:12.691Z,9.67
2019-01-03T19:32:41.458Z,10.80
2019-01-03T19:35:27.403Z,10.77
2019-01-03T19:38:12.772Z,8.00
2019-01-03T19:41:03.228Z,8.27
2019-01-03T19:43:50.823Z,12.47
2019-01-03T19:46:40.103Z,11.53
2019-01-03T19:49:25.997Z,9.57
2019-01-03T19:52:12.535Z,13.90
2019-01-03T19:54:58.913Z,12.27
2019-01-03T19:57:45.764Z,10.10
2019-01-03T20:00:31.922Z,11.57
2019-01-03T20:03:20.522Z,10.47
2019-01-03T20:05:49.287Z,11.60
2019-01-03T20:08:16.407Z,10.57
2019-01-03T20:11:02.253Z,15.03
2019-01-03T20:13:47.959Z,14.27
2019-01-03T20:16:36.178Z,13.90
2019-01-03T20:19:21.989Z,17.40
2019-01-03T20:22:07.678Z,11.77
2019-01-03T20:24:53.638Z,13.17
2019-01-03T20:27:39.142Z,12.10
2019-01-03T20:30:24.932Z,11.87
2019-01-03T20:33:10.557Z,11.63
2019-01-03T20:35:55.922Z,12.70
2019-01-03T20:38:41.950Z,14.90
2019-01-03T20:41:28.600Z,14.57
2019-01-03T20:44:14.072Z,9.57
2019-01-03T20:46:59.894Z,15.07
2019-01-03T20:49:48.070Z,15.00
2019-01-03T20:52:33.860Z,14.93
2019-01-03T20:55:19.643Z,11.30
2019-01-03T20:58:06.416Z,12.90
2019-01-03T21:00:52.919Z,11.57
2019-01-03T21:03:38.326Z,12.57
2019-01-03T21:06:23.739Z,12.00
2019-01-03T21:09:11.304Z,10.77
2019-01-03T21:11:56.914Z,19.03
2019-01-03T21:14:42.607Z,10.43
2019-01-03T21:17:28.486Z,12.87
2019-01-03T21:20:16.122Z,12.67
2019-01-03T21:23:02.135Z,11.53
2019-01-03T21:25:47.803Z,10.70
2019-01-03T21:28:33.227Z,10.53
2019-01-03T21:31:19.059Z,11.23
2019-01-03T21:34:04.761Z,12.93
2019-01-03T21:36:50.439Z,9.37
2019-01-03T21:39:36.284Z,10.00
2019-01-03T21:42:21.651Z,9.60
2019-01-03T21:45:07.933Z,8.00
2019-01-03T21:47:53.063Z,9.37
2019-01-03T21:50:38.355Z,10.07
2019-01-03T21:53:24.090Z,12.53
2019-01-03T21:56:10.569Z,8.47
2019-01-03T21:58:56.212Z,8.47
2019-01-03T22:01:41.803Z,13.20
2019-01-03T22:04:26.966Z,10.37
2019-01-03T22:07:13.263Z,12.23
2019-01-03T22:09:58.706Z,8.60
2019-01-03T22:12:44.414Z,10.73
2019-01-03T22:15:29.907Z,11.80
2019-01-03T22:18:16.006Z,10.77
2019-01-03T22:21:02.309Z,11.17
2019-01-03T22:23:48.160Z,7.93
2019-01-03T22:26:34.107Z,9.97
2019-01-03T22:29:19.759Z,10.00
2019-01-03T22:32:05.717Z,12.83
2019-01-03T22:34:51.639Z,8.87
2019-01-03T22:37:37.398Z,10.40
2019-01-03T22:40:23.114Z,8.67
2019-01-03T22:43:08.685Z,13.70
2019-01-03T22:45:54.095Z,10.77
2019-01-03T22:48:40.048Z,10.13
2019-01-03T22:51:25.538Z,8.83
2019-01-03T22:54:10.989Z,11.63
2019-01-03T22:56:57.625Z,10.47
2019-01-03T22:59:43.267Z,9.90
2019-01-03T23:02:29.067Z,6.13
2019-01-03T23:05:14.679Z,11.37
2019-01-03T23:08:00.143Z,9.80
2019-01-03T23:10:46.353Z,9.40
2019-01-03T23:13:31.779Z,10.80
2019-01-03T23:16:17.811Z,10.50
2019-01-03T23:19:03.382Z,7.73
2019-01-03T23:21:48.787Z,8.00
2019-01-03T23:24:34.753Z,9.40
2019-01-03T23:27:20.334Z,11.30
2019-01-03T23:30:06.759Z,7.97
2019-01-03T23:32:52.234Z,7.20
2019-01-03T23:35:37.628Z,6.20
2019-01-03T23:38:23.603Z,6.63
2019-01-03T23:41:09.061Z,7.17
2019-01-03T23:43:54.847Z,9.10
2019-01-03T23:46:40.122Z,9.63
2019-01-03T23:49:25.980Z,8.97
2019-01-03T23:52:11.250Z,6.33
2019-01-03T23:54:57.399Z,9.10
2019-01-03T23:57:42.594Z,10.40
